Weather observations for the past three days for
Truth Or Consequences, Truth Or Consequences Municipal Airport
| Date | Time (mdt) | Wind (kph) | Vis. (km) | Weather | Sky Cond. | Temperature (ºC) | Relative Humidity | Wind Chill (°C) | Heat Index (°C) | Pressure | Precipitation (cm) | ||||||
|---|---|---|---|---|---|---|---|---|---|---|---|---|---|---|---|---|---|
| Air | Dwpt | 6 hour | altimeter (cm) | sea level (mb) | 1 hr | 3 hr | 6 hr | ||||||||||
| Max. | Min. | ||||||||||||||||
| 09 | 09:53 | NE 13 | 16.09 | Fair | CLR | 25 | -3.3 | 15% | 25 | 76.25 | 1007.9 | ||||||
| 09 | 08:53 | E 7 | 16.09 | Fair | CLR | 23.3 | -3.9 | 16% | 76.25 | 1007.9 | |||||||
| 09 | 07:53 | NW 17 | 16.09 | Fair | CLR | 21.7 | -3.9 | 18% | 76.23 | 1007.6 | |||||||
| 09 | 06:53 | Vrbl 6 | 16.09 | Fair | CLR | 17.2 | -5 | 22% | 76.17 | 1007.4 | |||||||
| 09 | 05:53 | N 11 | 16.09 | Fair | CLR | 17.8 | -6.1 | 20.6 | 16.1 | 19% | 76.12 | 1006.5 | |||||
| 09 | 04:53 | Vrbl 9 | 16.09 | Fair | CLR | 18.9 | -6.7 | 17% | 76.1 | 1005.7 | |||||||
| 09 | 03:53 | NW 17 | 16.09 | Fair | CLR | 17.8 | -6.7 | 18% | 76.1 | 1006.0 | |||||||
| 09 | 02:53 | W 19 | 16.09 | Fair | CLR | 16.1 | -7.2 | 20% | 76.07 | 1006.1 | |||||||
| 09 | 01:53 | W 17 | 16.09 | Fair | CLR | 17.2 | -7.8 | 17% | 76.07 | 1006.0 | |||||||
| 09 | 00:53 | NW 13 | 16.09 | Fair | CLR | 18.9 | -8.3 | 15% | 76.1 | 1006.2 | |||||||
| 08 | 23:53 | W 7 | 16.09 | Fair | CLR | 18.9 | -7.8 | 30 | 18.9 | 16% | 76.12 | 1006.6 | |||||
| 08 | 22:53 | NW 7 | 16.09 | Fair | CLR | 22.2 | -6.1 | 15% | 76.12 | 1006.4 | |||||||
| 08 | 21:53 | E 9 | 16.09 | Fair | CLR | 23.3 | -6.1 | 14% | 76.07 | 1006.1 | |||||||
| 08 | 20:53 | SE 7 | 16.09 | Fair | CLR | 25.6 | -6.7 | 11% | 25 | 76.02 | 1005.3 | ||||||
| 08 | 19:53 | SE 7 | 16.09 | Fair | CLR | 26.7 | -6.7 | 11% | 26 | 75.95 | 1004.8 | ||||||
| 08 | 18:53 | E 13 | 16.09 | Fair | CLR | 28.9 | -6.1 | 10% | 27 | 75.92 | 1004.5 | ||||||
| 08 | 17:53 | E 19 G 41 | 16.09 | Fair | CLR | 30 | -6.1 | 30 | 26.1 | 9% | 28 | 75.92 | 1004.7 | ||||
| 08 | 16:53 | E 7 G 28 | 16.09 | Fair | CLR | 30 | -5.6 | 9% | 28 | 75.95 | 1004.5 | ||||||
| 08 | 15:53 | W 17 G 30 | 16.09 | Fair | CLR | 28.9 | -6.1 | 10% | 27 | 75.97 | 1005.4 | ||||||
| 08 | 14:53 | SW 11 | 16.09 | Fair | CLR | 28.3 | -5.6 | 10% | 27 | 76.05 | 1006.1 | ||||||
| 08 | 13:53 | NW 13 | 16.09 | Fair | CLR | 28.3 | -6.1 | 10% | 27 | 76.1 | 1006.6 | ||||||
| 08 | 12:53 | Calm | 16.09 | Fair | CLR | 27.2 | -6.1 | 11% | 26 | 76.15 | 1007.2 | ||||||
| 08 | 11:53 | E 24 G 37 | 16.09 | Fair | CLR | 26.7 | -5 | 26.7 | 11.7 | 12% | 26 | 76.23 | 1008.3 | ||||
| 08 | 10:53 | NE 13 | 16.09 | Fair | CLR | 23.9 | -7.8 | 11% | 24 | 76.28 | 1009.2 | ||||||
| 08 | 09:53 | NE 17 | 16.09 | Fair | CLR | 21.7 | -8.3 | 13% | 76.3 | 1009.8 | |||||||
| 08 | 08:53 | N 11 | 16.09 | Fair | CLR | 19.4 | -8.9 | 14% | 76.33 | 1010.0 | |||||||
| 08 | 07:53 | N 9 | 16.09 | Fair | CLR | 16.7 | -8.3 | 17% | 76.3 | 1010.0 | |||||||
| 08 | 06:53 | N 7 | 16.09 | Fair | CLR | 13.9 | -9.4 | 19% | 76.25 | 1009.6 | |||||||
| 08 | 05:53 | N 11 | 16.09 | Fair | CLR | 12.2 | -10.6 | 18.3 | 12.2 | 19% | 76.2 | 1008.9 | |||||
| 08 | 04:53 | N 9 | 16.09 | Fair | CLR | 13.9 | -10 | 18% | 76.17 | 1008.3 | |||||||
| 08 | 03:53 | N 9 | 16.09 | Fair | CLR | 13.3 | -7.2 | 24% | 76.15 | 1008.2 | |||||||
| 08 | 02:53 | NW 15 | 16.09 | Fair | CLR | 15.6 | -7.2 | 20% | 76.15 | 1007.9 | |||||||
| 08 | 01:53 | Vrbl 7 | 16.09 | Fair | CLR | 16.1 | -8.9 | 17% | 76.15 | 1008.3 | |||||||
| 08 | 00:53 | W 19 | 16.09 | Fair | CLR | 17.8 | -7.8 | 17% | 76.2 | 1008.5 | |||||||
| 07 | 23:53 | SW 13 | 16.09 | Fair | CLR | 17.8 | -7.2 | 26.1 | 17.8 | 18% | 76.17 | 1008.7 | |||||
| 07 | 22:53 | S 11 | 16.09 | Fair | CLR | 19.4 | -6.7 | 17% | 76.17 | 1008.7 | |||||||
| 07 | 21:53 | S 11 | 16.09 | Fair | CLR | 20.6 | -7.2 | 15% | 76.17 | 1008.7 | |||||||
| 07 | 20:53 | S 15 | 16.09 | Fair | CLR | 22.2 | -6.7 | 14% | 76.1 | 1007.8 | |||||||
| 07 | 19:53 | S 17 | 16.09 | Fair | CLR | 23.9 | -7.2 | 12% | 24 | 76.07 | 1007.3 | ||||||
| 07 | 18:53 | S 13 | 16.09 | Fair | CLR | 25 | -7.2 | 11% | 25 | 76.05 | 1007.4 | ||||||
| 07 | 17:53 | SE 17 | 16.09 | Fair | CLR | 26.1 | -6.7 | 26.7 | 21.1 | 11% | 25 | 76.05 | 1007.1 | ||||
| 07 | 16:53 | Vrbl 9 G 35 | 16.09 | Fair | CLR | 25.6 | -6.7 | 11% | 25 | 76.07 | 1007.6 | ||||||
| 07 | 15:53 | SE 20 | 16.09 | Fair | CLR | 25 | -5.6 | 13% | 25 | 76.12 | 1008.1 | ||||||
| 07 | 14:53 | SE 13 | 16.09 | Fair | CLR | 24.4 | -5.6 | 13% | 24 | 76.23 | 1009.1 | ||||||
| 07 | 13:53 | Vrbl 11 | 16.09 | Fair | CLR | 23.3 | -5.6 | 14% | 76.3 | 1010.4 | |||||||
| 07 | 12:53 | N 11 G 35 | 16.09 | Fair | CLR | 22.8 | -5.6 | 15% | 76.38 | 1011.7 | |||||||
| 07 | 11:53 | E 20 G 30 | 16.09 | Fair | CLR | 21.1 | -5.6 | 21.1 | 9.4 | 16% | 76.45 | 1012.5 | |||||
| 07 | 10:53 | N 13 | 16.09 | Fair | CLR | 18.9 | -5 | 19% | 76.5 | 1013.3 | |||||||
| 07 | 09:53 | Calm | 16.09 | Fair | CLR | 17.2 | -6.1 | 20% | 76.56 | 1014.5 | |||||||
| 07 | 08:53 | NE 19 | 16.09 | Fair | CLR | 15.6 | -5 | 24% | 76.58 | 1014.7 | |||||||
| 07 | 07:53 | N 11 | 16.09 | Fair | CLR | 13.3 | -0.6 | 39% | 76.58 | 1014.7 | |||||||
| 07 | 06:53 | N 9 | 16.09 | Fair | CLR | 10.6 | 0.6 | 50% | 76.56 | 1014.4 | |||||||
| 07 | 05:53 | N 13 | 16.09 | Fair | CLR | 10 | 0.6 | 16.1 | 10 | 52% | 8 | 76.48 | 1013.9 | ||||
| 07 | 04:53 | N 11 | 16.09 | Fair | CLR | 10.6 | 0.6 | 50% | 76.48 | 1013.5 | |||||||
| 07 | 03:53 | N 19 | 16.09 | Fair | CLR | 12.2 | 0 | 43% | 76.48 | 1013.3 | |||||||
| 07 | 02:53 | N 19 | 16.09 | Fair | CLR | 13.9 | -0.6 | 37% | 76.45 | 1012.7 | |||||||
| 07 | 01:53 | N 19 | 16.09 | Fair | CLR | 13.9 | 0 | 39% | 76.45 | 1013.0 | |||||||
| 07 | 00:53 | N 17 | 16.09 | Fair | CLR | 13.9 | -1.1 | 36% | 76.45 | 1013.1 | |||||||
| 06 | 23:53 | NE 15 | 16.09 | Fair | CLR | 16.1 | -0.6 | 24.4 | 16.1 | 32% | 76.43 | 1012.7 | |||||
| 06 | 22:53 | W 6 | 16.09 | Partly Cloudy | SCT110 | 18.3 | -6.1 | 19% | 76.38 | 1011.9 | |||||||
| 06 | 21:53 | SE 9 | 16.09 | Fair | CLR | 17.2 | -6.1 | 20% | 76.28 | 1011.1 | |||||||
| 06 | 20:53 | N 7 | 16.09 | Fair | CLR | 19.4 | -6.7 | 17% | 76.17 | 1009.7 | |||||||
| 06 | 19:53 | N 9 | 16.09 | Fair | CLR | 21.7 | -8.3 | 13% | 76.1 | 1008.0 | |||||||
| 06 | 18:53 | SW 19 | 16.09 | Fair | CLR | 23.3 | -10.6 | 10% | 76.02 | 1007.6 | |||||||
| 06 | 16:53 | SE 9 G 35 | 16.09 | Fair | CLR | 23.3 | -8.3 | 11% | 76 | 1007.0 | |||||||
| 06 | 15:53 | S 19 G 31 | 16.09 | Fair | CLR | 23.3 | -7.2 | 12% | 76.05 | 1007.5 | |||||||
| 06 | 14:53 | S 17 G 35 | 16.09 | Fair | CLR | 22.2 | -6.7 | 14% | 76.1 | 1008.5 | |||||||
| 06 | 13:53 | SE 26 G 39 | 16.09 | Fair | CLR | 21.7 | -5.6 | 16% | 76.12 | 1009.0 | |||||||
| 06 | 12:53 | Calm | 16.09 | Fair | CLR | 20 | -6.7 | 16% | 76.2 | 1009.7 | |||||||
| 06 | 11:53 | Vrbl 6 | 16.09 | Fair | CLR | 17.8 | -4.4 | 18.3 | 8.3 | 22% | 76.25 | 1010.8 | |||||
| 06 | 10:53 | Vrbl 6 | 16.09 | Fair | CLR | 16.1 | -2.8 | 27% | 76.28 | 1011.3 | |||||||
| Date | Time (mdt) | Wind (kph) | Vis. (km) | Weather | Sky Cond. | Air | Dwpt | Max. | Min. | Relative Humidity | Wind Chill (°C) | Heat Index (°C) | altimeter (cm) | sea level (mb) | 1 hr | 3 hr | 6 hr |
| 6 hour | |||||||||||||||||
| Temperature (ºC) | Pressure | Precipitation (cm) | |||||||||||||||